(°C)
23°
24°
24°
24°
23°
22°
21°
(°C)
22°
24°
23°
23°
23°
22°
21°
Z
VSV
V
VSV
V
VSV
J
(km/h)
5-13
6-16
8-15
7-15
6-11
4-9
2-7
(mm)
0
0
2.2
2.4
0
0
0
(%)
61
61
72
72
58
58
49

Výška Slnka nad obzorom

/ 51.6°
sun-icon
UV 3
06:08
20:29
Zmenšujúci sa polmesiac (226°)
22:20
10:06

Správy METAR pre lokalitu Innsbruck (LOWI)

Čas Podmienky Teplota/
Rosný bod
Vietor Viditeľnosť Počasie Oblaky Tlak Zmeniť Nespracované
VFR 23°C / 15°C 80º variable 030º to 100º 4kt >10km - Few Clouds 3500ft
Broken Clouds 9500ft
1009 No Significant change LOWI 151220Z 08004KT 030V100 9999 FEW035 BKN095 23/15 Q1009 NOSIG
VFR 22°C / 15°C 50º variable 350º to 080º 3kt >10km - Few Clouds 3500ft
Broken Clouds 9500ft
1010 No Significant change LOWI 151150Z 05003KT 350V080 9999 FEW035 BKN095 22/15 Q1010 NOSIG
VFR 21°C / 15°C 80º variable 040º to 110º 5kt >10km - Few Clouds 2000ft
Scattered Clouds 9000ft
1010 No Significant change LOWI 151120Z 08005KT 040V110 9999 FEW020 SCT090 21/15 Q1010 NOSIG
VFR 19°C / 16°C 80º variable 030º to 140º 4kt >10km - Few Clouds 1500ft
Broken Clouds 9000ft
1011 No Significant change LOWI 151050Z 08004KT 030V140 9999 FEW015 BKN090 19/16 Q1011 NOSIG
VFR 18°C / 16°C 260º variable 230º to 330º 3kt >10km Light Showers Rain 3.00mm precipitation Vertical Visibility of 0ft.
Broken Clouds 7000ft
1011 No Significant change LOWI 151020Z 26003KT 230V330 9999 -SHRA FEW010 BKN070 18/16 Q1011 RESHRA NOSIG
VFR 18°C / 15°C 280º 6kt >10km - Few Clouds 2000ft
Broken Clouds 7000ft
1011 No Significant change LOWI 150950Z 28006KT 9999 FEW020 BKN070 18/15 Q1011 NOSIG
VFR 17°C / 15°C 280º 10kt >10km - Few Clouds 2000ft
Broken Clouds 7000ft
1011 No Significant change LOWI 150920Z 28010KT 9999 FEW020 BKN070 17/15 Q1011 NOSIG
VFR 17°C / 15°C 280º 10kt >10km Light Showers Rain 3.00mm precipitation Vertical Visibility of 0ft.
Broken Clouds 6000ft
1011 No Significant change LOWI 150850Z 28010KT 9999 -SHRA FEW030 BKN060 17/15 Q1011 RESHRA NOSIG
VFR 17°C / 15°C 270º 16kt >10km Light Showers Rain 3.00mm precipitation Vertical Visibility of 0ft.
Broken Clouds 6000ft
1011 Temporary: until Showers Rain . LOWI 150820Z 27016KT 9999 -SHRA FEW030 BKN060 17/15 Q1011 TEMPO TL0900 SHRA
VFR 19°C / 14°C 260º variable 220º to 290º 11kt >10km - Broken Clouds 6000ft
Few Clouds 6000ft
1010 Temporary: Showers Rain . LOWI 150750Z 26011KT 220V290 9999 BKN060 FEW060TCU 19/14 Q1010 TEMPO SHRA
VFR 18°C / 14°C 270º 6kt >10km - Broken Clouds 6000ft
Few Clouds 6000ft
1010 Temporary: from 0800 Showers Rain . LOWI 150720Z 27006KT 9999 BKN060 FEW060TCU 18/14 Q1010 TEMPO FM0800 SHRA
VFR 19°C / 13°C variable 2kt >10km - Broken Clouds 6000ft
Few Clouds 6000ft
1010 Temporary: from 0730 Wind 270º 12kt. Showers Rain . LOWI 150650Z VRB02KT 9999 BKN060 FEW060TCU 19/13 Q1010 TEMPO FM0730 27012KT SHRA
VFR 19°C / 12°C variable 1kt >10km - Scattered Clouds 7000ft
Broken Clouds 10000ft
1010 Temporary: from 0700 Wind 270º 10kt. Showers Rain . LOWI 150620Z VRB01KT 9999 SCT070 BKN100 19/12 Q1010 TEMPO FM0700 27010KT SHRA
VFR 18°C / 13°C variable 1kt >10km - Few Clouds 6000ft
Broken Clouds 10000ft
1010 Temporary: from 0730 Wind 270º 10kt. Showers Rain . LOWI 150550Z VRB01KT 9999 FEW060 BKN100 18/13 Q1010 TEMPO FM0730 27010KT SHRA
VFR 17°C / 13°C variable 1kt >10km - Few Clouds 6000ft
Broken Clouds 10000ft
1009 No Significant change LOWI 150520Z VRB01KT 9999 FEW060 BKN100 17/13 Q1009 NOSIG
VFR 16°C / 12°C variable 2kt >10km - Few Clouds 6000ft
Broken Clouds 10000ft
1010 No Significant change LOWI 150450Z VRB02KT 9999 FEW060 BKN100 16/12 Q1010 NOSIG
VFR 16°C / 12°C variable 2kt >10km - Few Clouds 6000ft
Broken Clouds 10000ft
1009 No Significant change LOWI 150420Z VRB02KT 9999 FEW060 BKN100 16/12 Q1009 NOSIG
VFR 15°C / 12°C variable 1kt >10km - Few Clouds 6000ft
Broken Clouds 10000ft
1009 No Significant change LOWI 150350Z VRB01KT 9999 FEW060 BKN100 15/12 Q1009 NOSIG
VFR 15°C / 12°C variable 2kt >10km - Few Clouds 10000ft 1009 - LOWI 150320Z AUTO VRB02KT 9999 FEW100 15/12 Q1009
VFR 16°C / 12°C variable 2kt >10km - Few Clouds 9000ft 1009 - LOWI 150250Z AUTO VRB02KT 9999 FEW090 16/12 Q1009
VFR 17°C / 12°C variable 2kt >10km - Clear 1009 - LOWI 150220Z AUTO VRB02KT 9999 NSC 17/12 Q1009
VFR 18°C / 13°C variable 1kt >10km - Few Clouds 8000ft
Scattered Clouds 9000ft
1009 - LOWI 150150Z AUTO VRB01KT 9999 FEW080 SCT090 18/13 Q1009
VFR 19°C / 13°C 130º 4kt >10km - Clear 1009 - LOWI 150120Z AUTO 13004KT 9999 NSC 19/13 Q1009
VFR 18°C / 13°C variable 1kt >10km - Clear 1009 - LOWI 150050Z AUTO VRB01KT 9999 NSC 18/13 Q1009

VFR

23°C / 15°C

[Viac]
Vietor 80º variable 030º to 100º 4kt
Viditeľnosť >10km
Počasie -
Oblaky Few Clouds 3500ft
Broken Clouds 9500ft
Tlak 1009
Zmeniť No Significant change
Nespracované LOWI 151220Z 08004KT 030V100 9999 FEW035 BKN095 23/15 Q1009 NOSIG

VFR

22°C / 15°C

[Viac]
Vietor 50º variable 350º to 080º 3kt
Viditeľnosť >10km
Počasie -
Oblaky Few Clouds 3500ft
Broken Clouds 9500ft
Tlak 1010
Zmeniť No Significant change
Nespracované LOWI 151150Z 05003KT 350V080 9999 FEW035 BKN095 22/15 Q1010 NOSIG

VFR

21°C / 15°C

[Viac]
Vietor 80º variable 040º to 110º 5kt
Viditeľnosť >10km
Počasie -
Oblaky Few Clouds 2000ft
Scattered Clouds 9000ft
Tlak 1010
Zmeniť No Significant change
Nespracované LOWI 151120Z 08005KT 040V110 9999 FEW020 SCT090 21/15 Q1010 NOSIG

VFR

19°C / 16°C

[Viac]
Vietor 80º variable 030º to 140º 4kt
Viditeľnosť >10km
Počasie -
Oblaky Few Clouds 1500ft
Broken Clouds 9000ft
Tlak 1011
Zmeniť No Significant change
Nespracované LOWI 151050Z 08004KT 030V140 9999 FEW015 BKN090 19/16 Q1011 NOSIG

VFR

18°C / 16°C

[Viac]
Vietor 260º variable 230º to 330º 3kt
Viditeľnosť >10km
Počasie Light Showers Rain 3.00mm precipitation
Oblaky Vertical Visibility of 0ft.
Broken Clouds 7000ft
Tlak 1011
Zmeniť No Significant change
Nespracované LOWI 151020Z 26003KT 230V330 9999 -SHRA FEW010 BKN070 18/16 Q1011 RESHRA NOSIG

VFR

18°C / 15°C

[Viac]
Vietor 280º 6kt
Viditeľnosť >10km
Počasie -
Oblaky Few Clouds 2000ft
Broken Clouds 7000ft
Tlak 1011
Zmeniť No Significant change
Nespracované LOWI 150950Z 28006KT 9999 FEW020 BKN070 18/15 Q1011 NOSIG

VFR

17°C / 15°C

[Viac]
Vietor 280º 10kt
Viditeľnosť >10km
Počasie -
Oblaky Few Clouds 2000ft
Broken Clouds 7000ft
Tlak 1011
Zmeniť No Significant change
Nespracované LOWI 150920Z 28010KT 9999 FEW020 BKN070 17/15 Q1011 NOSIG

VFR

17°C / 15°C

[Viac]
Vietor 280º 10kt
Viditeľnosť >10km
Počasie Light Showers Rain 3.00mm precipitation
Oblaky Vertical Visibility of 0ft.
Broken Clouds 6000ft
Tlak 1011
Zmeniť No Significant change
Nespracované LOWI 150850Z 28010KT 9999 -SHRA FEW030 BKN060 17/15 Q1011 RESHRA NOSIG

VFR

17°C / 15°C

[Viac]
Vietor 270º 16kt
Viditeľnosť >10km
Počasie Light Showers Rain 3.00mm precipitation
Oblaky Vertical Visibility of 0ft.
Broken Clouds 6000ft
Tlak 1011
Zmeniť Temporary: until Showers Rain .
Nespracované LOWI 150820Z 27016KT 9999 -SHRA FEW030 BKN060 17/15 Q1011 TEMPO TL0900 SHRA

VFR

19°C / 14°C

[Viac]
Vietor 260º variable 220º to 290º 11kt
Viditeľnosť >10km
Počasie -
Oblaky Broken Clouds 6000ft
Few Clouds 6000ft
Tlak 1010
Zmeniť Temporary: Showers Rain .
Nespracované LOWI 150750Z 26011KT 220V290 9999 BKN060 FEW060TCU 19/14 Q1010 TEMPO SHRA

VFR

18°C / 14°C

[Viac]
Vietor 270º 6kt
Viditeľnosť >10km
Počasie -
Oblaky Broken Clouds 6000ft
Few Clouds 6000ft
Tlak 1010
Zmeniť Temporary: from 0800 Showers Rain .
Nespracované LOWI 150720Z 27006KT 9999 BKN060 FEW060TCU 18/14 Q1010 TEMPO FM0800 SHRA

VFR

19°C / 13°C

[Viac]
Vietor variable 2kt
Viditeľnosť >10km
Počasie -
Oblaky Broken Clouds 6000ft
Few Clouds 6000ft
Tlak 1010
Zmeniť Temporary: from 0730 Wind 270º 12kt. Showers Rain .
Nespracované LOWI 150650Z VRB02KT 9999 BKN060 FEW060TCU 19/13 Q1010 TEMPO FM0730 27012KT SHRA

VFR

19°C / 12°C

[Viac]
Vietor variable 1kt
Viditeľnosť >10km
Počasie -
Oblaky Scattered Clouds 7000ft
Broken Clouds 10000ft
Tlak 1010
Zmeniť Temporary: from 0700 Wind 270º 10kt. Showers Rain .
Nespracované LOWI 150620Z VRB01KT 9999 SCT070 BKN100 19/12 Q1010 TEMPO FM0700 27010KT SHRA

VFR

18°C / 13°C

[Viac]
Vietor variable 1kt
Viditeľnosť >10km
Počasie -
Oblaky Few Clouds 6000ft
Broken Clouds 10000ft
Tlak 1010
Zmeniť Temporary: from 0730 Wind 270º 10kt. Showers Rain .
Nespracované LOWI 150550Z VRB01KT 9999 FEW060 BKN100 18/13 Q1010 TEMPO FM0730 27010KT SHRA

VFR

17°C / 13°C

[Viac]
Vietor variable 1kt
Viditeľnosť >10km
Počasie -
Oblaky Few Clouds 6000ft
Broken Clouds 10000ft
Tlak 1009
Zmeniť No Significant change
Nespracované LOWI 150520Z VRB01KT 9999 FEW060 BKN100 17/13 Q1009 NOSIG

VFR

16°C / 12°C

[Viac]
Vietor variable 2kt
Viditeľnosť >10km
Počasie -
Oblaky Few Clouds 6000ft
Broken Clouds 10000ft
Tlak 1010
Zmeniť No Significant change
Nespracované LOWI 150450Z VRB02KT 9999 FEW060 BKN100 16/12 Q1010 NOSIG

VFR

16°C / 12°C

[Viac]
Vietor variable 2kt
Viditeľnosť >10km
Počasie -
Oblaky Few Clouds 6000ft
Broken Clouds 10000ft
Tlak 1009
Zmeniť No Significant change
Nespracované LOWI 150420Z VRB02KT 9999 FEW060 BKN100 16/12 Q1009 NOSIG

VFR

15°C / 12°C

[Viac]
Vietor variable 1kt
Viditeľnosť >10km
Počasie -
Oblaky Few Clouds 6000ft
Broken Clouds 10000ft
Tlak 1009
Zmeniť No Significant change
Nespracované LOWI 150350Z VRB01KT 9999 FEW060 BKN100 15/12 Q1009 NOSIG

VFR

15°C / 12°C

[Viac]
Vietor variable 2kt
Viditeľnosť >10km
Počasie -
Oblaky Few Clouds 10000ft
Tlak 1009
Zmeniť -
Nespracované LOWI 150320Z AUTO VRB02KT 9999 FEW100 15/12 Q1009

VFR

16°C / 12°C

[Viac]
Vietor variable 2kt
Viditeľnosť >10km
Počasie -
Oblaky Few Clouds 9000ft
Tlak 1009
Zmeniť -
Nespracované LOWI 150250Z AUTO VRB02KT 9999 FEW090 16/12 Q1009

VFR

17°C / 12°C

[Viac]
Vietor variable 2kt
Viditeľnosť >10km
Počasie -
Oblaky Clear
Tlak 1009
Zmeniť -
Nespracované LOWI 150220Z AUTO VRB02KT 9999 NSC 17/12 Q1009

VFR

18°C / 13°C

[Viac]
Vietor variable 1kt
Viditeľnosť >10km
Počasie -
Oblaky Few Clouds 8000ft
Scattered Clouds 9000ft
Tlak 1009
Zmeniť -
Nespracované LOWI 150150Z AUTO VRB01KT 9999 FEW080 SCT090 18/13 Q1009

VFR

19°C / 13°C

[Viac]
Vietor 130º 4kt
Viditeľnosť >10km
Počasie -
Oblaky Clear
Tlak 1009
Zmeniť -
Nespracované LOWI 150120Z AUTO 13004KT 9999 NSC 19/13 Q1009

VFR

18°C / 13°C

[Viac]
Vietor variable 1kt
Viditeľnosť >10km
Počasie -
Oblaky Clear
Tlak 1009
Zmeniť -
Nespracované LOWI 150050Z AUTO VRB01KT 9999 NSC 18/13 Q1009

Správy TAF pre lokalitu Innsbruck (LOWI)

From till


Maximum Temperature 26ºC on . Minimum Temperature 14ºC on .
From till Wind 270º 5kt. Visibility 10km or more. Few Clouds 6000ft. Broken Clouds 10000ft.
Temporarly from till Wind 240º 15kt. Gust 30kt. Thunderstorm Rain . Scattered Clouds 5000ft. Broken Clouds 6000ft.

Nespracované: TAF LOWI 151115Z 1512/1612 27005KT 9999 FEW060 BKN100 TX26/1612Z TN14/1604Z TEMPO 1513/1521 24015G30KT TSRA SCT050CB BKN060

Radar pre Innsbruck

Mrholenie
Slabý
Mierne
Ťažké
Veľmi ťažké
Krúpy

Značka polohy je umiestnená na Innsbruck. Táto animácia ukazuje zrážky pozorované radarom za poslednú hodinu a tiež 2h predpoveď. Mrholenie alebo slabé sneženie môže byť pre radar neviditeľné. Intenzita zrážok je farebne označená od svetlomodrej po oranžovú.
Copyright 2022 Deutscher Wetterdienst / meteoblue.

Aktuálne satelitné snímky a snímky zrážok pre lokalitu Innsbruck, Rakúsko

Značka polohy je umiestnená naInnsbruck. [Viac]

Satelitné snímky zhotovované v reálnom čase využívajú viditeľné svetlo počas dňa a infračervené žiarenie počas noci. Vzhľadom na to, že infračervené žiarenie zisťuje teplotné rozdiely, snímka v noci nie je tmavá. Nízke oblaky a hmlu je, žiaľ, ťažké odlíšiť od prízemných teplôt, preto môžu byť počas noci takmer neviditeľné. Meteosat satelitné snímky pre Európu sú aktualizované v reálnom čase každých 5 minút. Snímky z GOES-16/GOES-17 (Severná a Južná Amerika) a Himawari (Ázia) sú aktualizované každých 10 minút.

Zrážky sú odhadované na základe radara a satelitov. V noci sú odhady zrážok zo satelitov menej presné než počas dňa. Oranžové krížiky označujú miesta, kde bol zaznamenaný blesk (za Európa).

Copyright 2022 EUMETSAT / meteoblue. Údaje o bleskoch poskytuje nowcast.

Späť nahor